sensor_id;sensor_type;location;lat;lon;timestamp;P1;durP1;ratioP1;P2;durP2;ratioP2
52740;SDS011;38634;52.138;9.912;2023-03-05T00:01:12;13.85;;;3.78;;
52740;SDS011;38634;52.138;9.912;2023-03-05T00:04:12;10.82;;;3.72;;
52740;SDS011;38634;52.138;9.912;2023-03-05T00:06:58;9.73;;;3.17;;
52740;SDS011;38634;52.138;9.912;2023-03-05T00:09:42;12.60;;;3.70;;
52740;SDS011;38634;52.138;9.912;2023-03-05T00:12:27;12.73;;;3.70;;
52740;SDS011;38634;52.138;9.912;2023-03-05T00:15:12;12.50;;;3.67;;
52740;SDS011;38634;52.138;9.912;2023-03-05T00:17:56;12.88;;;4.05;;
52740;SDS011;38634;52.138;9.912;2023-03-05T00:20:42;11.13;;;3.45;;
52740;SDS011;38634;52.138;9.912;2023-03-05T00:23:26;11.55;;;3.50;;
52740;SDS011;38634;52.138;9.912;2023-03-05T00:26:11;9.95;;;3.45;;
52740;SDS011;38634;52.138;9.912;2023-03-05T00:28:56;9.65;;;3.00;;
52740;SDS011;38634;52.138;9.912;2023-03-05T00:31:40;9.18;;;3.25;;
52740;SDS011;38634;52.138;9.912;2023-03-05T00:34:26;9.65;;;3.50;;
52740;SDS011;38634;52.138;9.912;2023-03-05T00:37:12;8.80;;;3.22;;
52740;SDS011;38634;52.138;9.912;2023-03-05T00:39:56;12.48;;;3.67;;
52740;SDS011;38634;52.138;9.912;2023-03-05T00:42:41;9.10;;;3.17;;
52740;SDS011;38634;52.138;9.912;2023-03-05T00:45:25;9.68;;;3.40;;
52740;SDS011;38634;52.138;9.912;2023-03-05T00:48:10;9.00;;;4.30;;
52740;SDS011;38634;52.138;9.912;2023-03-05T00:50:55;9.32;;;3.22;;
52740;SDS011;38634;52.138;9.912;2023-03-05T00:53:39;9.50;;;3.40;;
52740;SDS011;38634;52.138;9.912;2023-03-05T00:56:24;5.28;;;2.78;;
52740;SDS011;38634;52.138;9.912;2023-03-05T00:59:08;7.07;;;3.13;;
52740;SDS011;38634;52.138;9.912;2023-03-05T01:01:53;9.68;;;3.22;;
52740;SDS011;38634;52.138;9.912;2023-03-05T01:04:37;9.88;;;3.30;;
52740;SDS011;38634;52.138;9.912;2023-03-05T01:07:22;10.25;;;3.38;;
52740;SDS011;38634;52.138;9.912;2023-03-05T01:10:07;11.20;;;3.60;;
52740;SDS011;38634;52.138;9.912;2023-03-05T01:12:53;10.90;;;4.43;;
52740;SDS011;38634;52.138;9.912;2023-03-05T01:15:39;12.27;;;3.78;;
52740;SDS011;38634;52.138;9.912;2023-03-05T01:18:23;10.80;;;4.13;;
52740;SDS011;38634;52.138;9.912;2023-03-05T01:21:08;11.35;;;3.63;;
52740;SDS011;38634;52.138;9.912;2023-03-05T01:23:53;9.27;;;3.63;;
52740;SDS011;38634;52.138;9.912;2023-03-05T01:26:37;11.80;;;3.78;;
52740;SDS011;38634;52.138;9.912;2023-03-05T01:29:22;10.80;;;4.00;;
52740;SDS011;38634;52.138;9.912;2023-03-05T01:32:07;12.65;;;4.50;;
52740;SDS011;38634;52.138;9.912;2023-03-05T01:34:52;7.78;;;2.92;;
52740;SDS011;38634;52.138;9.912;2023-03-05T01:37:36;9.73;;;3.55;;
52740;SDS011;38634;52.138;9.912;2023-03-05T01:40:25;6.32;;;2.83;;
52740;SDS011;38634;52.138;9.912;2023-03-05T01:52:14;10.00;;;3.45;;
52740;SDS011;38634;52.138;9.912;2023-03-05T01:55:04;9.60;;;3.40;;
52740;SDS011;38634;52.138;9.912;2023-03-05T01:57:53;6.82;;;3.30;;
52740;SDS011;38634;52.138;9.912;2023-03-05T02:00:45;10.73;;;3.63;;
52740;SDS011;38634;52.138;9.912;2023-03-05T02:03:32;10.40;;;3.90;;
52740;SDS011;38634;52.138;9.912;2023-03-05T02:06:17;7.27;;;2.90;;
52740;SDS011;38634;52.138;9.912;2023-03-05T02:09:02;9.38;;;3.13;;
52740;SDS011;38634;52.138;9.912;2023-03-05T02:11:47;8.18;;;2.78;;
52740;SDS011;38634;52.138;9.912;2023-03-05T02:14:32;8.38;;;2.90;;
52740;SDS011;38634;52.138;9.912;2023-03-05T02:17:16;10.02;;;3.10;;
52740;SDS011;38634;52.138;9.912;2023-03-05T11:29:56;13.38;;;3.70;;
52740;SDS011;38634;52.138;9.912;2023-03-05T11:32:41;11.25;;;3.38;;
52740;SDS011;38634;52.138;9.912;2023-03-05T11:35:30;10.77;;;3.47;;
52740;SDS011;38634;52.138;9.912;2023-03-05T11:38:23;11.77;;;3.70;;
52740;SDS011;38634;52.138;9.912;2023-03-05T11:41:09;13.13;;;3.58;;
52740;SDS011;38634;52.138;9.912;2023-03-05T11:43:54;7.95;;;3.17;;
52740;SDS011;38634;52.138;9.912;2023-03-05T11:46:45;8.43;;;2.75;;
52740;SDS011;38634;52.138;9.912;2023-03-05T11:49:34;7.97;;;3.08;;
52740;SDS011;38634;52.138;9.912;2023-03-05T11:52:29;9.93;;;3.88;;
52740;SDS011;38634;52.138;9.912;2023-03-05T11:55:29;11.77;;;3.30;;
52740;SDS011;38634;52.138;9.912;2023-03-05T11:58:49;8.98;;;3.45;;
52740;SDS011;38634;52.138;9.912;2023-03-05T12:02:02;10.98;;;3.53;;
52740;SDS011;38634;52.138;9.912;2023-03-05T12:05:04;7.03;;;2.40;;
52740;SDS011;38634;52.138;9.912;2023-03-05T12:07:57;11.35;;;3.08;;
52740;SDS011;38634;52.138;9.912;2023-03-05T12:10:44;11.50;;;3.42;;
52740;SDS011;38634;52.138;9.912;2023-03-05T12:13:34;12.82;;;3.22;;
52740;SDS011;38634;52.138;9.912;2023-03-05T12:22:48;9.98;;;3.03;;
52740;SDS011;38634;52.138;9.912;2023-03-05T12:25:43;9.20;;;3.13;;
52740;SDS011;38634;52.138;9.912;2023-03-05T12:31:33;6.78;;;2.42;;
52740;SDS011;38634;52.138;9.912;2023-03-05T12:34:33;11.98;;;3.25;;
52740;SDS011;38634;52.138;9.912;2023-03-05T12:43:27;9.05;;;2.72;;
52740;SDS011;38634;52.138;9.912;2023-03-05T12:46:23;8.90;;;2.85;;
52740;SDS011;38634;52.138;9.912;2023-03-05T12:52:03;6.38;;;2.63;;
52740;SDS011;38634;52.138;9.912;2023-03-05T12:55:12;9.35;;;2.88;;
52740;SDS011;38634;52.138;9.912;2023-03-05T13:01:33;9.80;;;2.80;;
52740;SDS011;38634;52.138;9.912;2023-03-05T13:04:27;10.88;;;3.15;;
52740;SDS011;38634;52.138;9.912;2023-03-05T13:07:14;10.98;;;3.20;;
52740;SDS011;38634;52.138;9.912;2023-03-05T13:10:00;10.50;;;3.10;;
52740;SDS011;38634;52.138;9.912;2023-03-05T13:12:49;7.43;;;2.47;;
52740;SDS011;38634;52.138;9.912;2023-03-05T13:15:38;7.85;;;2.67;;
52740;SDS011;38634;52.138;9.912;2023-03-05T13:18:24;11.45;;;3.83;;
52740;SDS011;38634;52.138;9.912;2023-03-05T13:21:14;9.35;;;3.42;;
52740;SDS011;38634;52.138;9.912;2023-03-05T13:24:01;8.30;;;3.08;;
52740;SDS011;38634;52.138;9.912;2023-03-05T13:26:46;9.32;;;2.85;;
52740;SDS011;38634;52.138;9.912;2023-03-05T13:29:31;9.10;;;2.88;;
52740;SDS011;38634;52.138;9.912;2023-03-05T13:32:34;10.18;;;2.97;;
52740;SDS011;38634;52.138;9.912;2023-03-05T13:35:18;11.25;;;3.10;;
52740;SDS011;38634;52.138;9.912;2023-03-05T13:38:03;10.95;;;3.42;;
52740;SDS011;38634;52.138;9.912;2023-03-05T13:46:41;7.70;;;2.78;;
52740;SDS011;38634;52.138;9.912;2023-03-05T13:49:26;8.00;;;3.53;;
52740;SDS011;38634;52.138;9.912;2023-03-05T13:52:11;8.38;;;4.10;;
52740;SDS011;38634;52.138;9.912;2023-03-05T13:55:14;12.38;;;5.90;;
52740;SDS011;38634;52.138;9.912;2023-03-05T13:57:59;11.52;;;5.75;;
52740;SDS011;38634;52.138;9.912;2023-03-05T14:00:44;8.82;;;4.35;;
52740;SDS011;38634;52.138;9.912;2023-03-05T14:03:29;9.85;;;4.05;;
52740;SDS011;38634;52.138;9.912;2023-03-05T14:06:16;13.32;;;5.22;;
52740;SDS011;38634;52.138;9.912;2023-03-05T14:09:05;11.88;;;5.32;;
52740;SDS011;38634;52.138;9.912;2023-03-05T14:12:05;14.20;;;4.93;;
52740;SDS011;38634;52.138;9.912;2023-03-05T14:15:02;7.80;;;3.72;;
52740;SDS011;38634;52.138;9.912;2023-03-05T14:18:17;8.18;;;3.88;;
52740;SDS011;38634;52.138;9.912;2023-03-05T14:21:04;16.25;;;5.13;;
52740;SDS011;38634;52.138;9.912;2023-03-05T14:23:52;14.98;;;5.75;;
52740;SDS011;38634;52.138;9.912;2023-03-05T14:26:38;11.75;;;3.90;;
52740;SDS011;38634;52.138;9.912;2023-03-05T14:29:35;17.45;;;6.63;;
52740;SDS011;38634;52.138;9.912;2023-03-05T14:32:33;11.55;;;5.45;;
52740;SDS011;38634;52.138;9.912;2023-03-05T14:35:21;31.73;;;7.78;;
52740;SDS011;38634;52.138;9.912;2023-03-05T14:38:14;18.70;;;5.65;;
52740;SDS011;38634;52.138;9.912;2023-03-05T14:44:23;31.85;;;8.40;;
52740;SDS011;38634;52.138;9.912;2023-03-05T14:47:09;15.60;;;5.05;;
52740;SDS011;38634;52.138;9.912;2023-03-05T14:49:53;13.35;;;4.20;;
52740;SDS011;38634;52.138;9.912;2023-03-05T14:52:38;17.98;;;5.28;;
52740;SDS011;38634;52.138;9.912;2023-03-05T14:55:24;33.47;;;7.65;;
52740;SDS011;38634;52.138;9.912;2023-03-05T14:58:20;23.77;;;6.45;;
52740;SDS011;38634;52.138;9.912;2023-03-05T15:01:10;18.73;;;6.05;;
52740;SDS011;38634;52.138;9.912;2023-03-05T15:03:55;27.00;;;7.32;;
52740;SDS011;38634;52.138;9.912;2023-03-05T15:06:40;17.35;;;5.90;;
52740;SDS011;38634;52.138;9.912;2023-03-05T15:09:28;19.42;;;5.35;;
52740;SDS011;38634;52.138;9.912;2023-03-05T15:12:13;16.08;;;5.63;;
52740;SDS011;38634;52.138;9.912;2023-03-05T15:14:59;19.00;;;6.57;;
52740;SDS011;38634;52.138;9.912;2023-03-05T15:17:44;17.25;;;6.18;;
52740;SDS011;38634;52.138;9.912;2023-03-05T15:20:30;18.40;;;5.60;;
52740;SDS011;38634;52.138;9.912;2023-03-05T15:23:16;18.08;;;5.03;;
52740;SDS011;38634;52.138;9.912;2023-03-05T15:26:01;28.60;;;7.25;;
52740;SDS011;38634;52.138;9.912;2023-03-05T15:28:48;24.17;;;6.70;;
52740;SDS011;38634;52.138;9.912;2023-03-05T15:31:33;12.88;;;4.25;;
52740;SDS011;38634;52.138;9.912;2023-03-05T15:34:21;17.33;;;4.93;;
52740;SDS011;38634;52.138;9.912;2023-03-05T15:37:06;30.27;;;7.13;;
52740;SDS011;38634;52.138;9.912;2023-03-05T15:39:51;22.20;;;6.55;;
52740;SDS011;38634;52.138;9.912;2023-03-05T15:42:36;15.23;;;4.40;;
52740;SDS011;38634;52.138;9.912;2023-03-05T15:45:21;11.45;;;3.90;;
52740;SDS011;38634;52.138;9.912;2023-03-05T15:48:06;21.30;;;5.72;;
52740;SDS011;38634;52.138;9.912;2023-03-05T15:50:51;30.95;;;7.75;;
52740;SDS011;38634;52.138;9.912;2023-03-05T15:53:35;29.42;;;7.45;;
52740;SDS011;38634;52.138;9.912;2023-03-05T15:56:20;12.18;;;3.95;;
52740;SDS011;38634;52.138;9.912;2023-03-05T15:59:04;13.93;;;4.28;;
52740;SDS011;38634;52.138;9.912;2023-03-05T16:01:50;28.55;;;7.40;;
52740;SDS011;38634;52.138;9.912;2023-03-05T16:04:35;24.98;;;8.50;;
52740;SDS011;38634;52.138;9.912;2023-03-05T16:07:20;19.23;;;5.07;;
52740;SDS011;38634;52.138;9.912;2023-03-05T16:10:04;11.77;;;4.53;;
52740;SDS011;38634;52.138;9.912;2023-03-05T16:13:01;14.95;;;5.63;;
52740;SDS011;38634;52.138;9.912;2023-03-05T16:15:49;14.98;;;5.03;;
52740;SDS011;38634;52.138;9.912;2023-03-05T16:18:38;12.13;;;4.07;;
52740;SDS011;38634;52.138;9.912;2023-03-05T16:21:26;28.92;;;7.75;;
52740;SDS011;38634;52.138;9.912;2023-03-05T16:24:11;16.55;;;6.32;;
52740;SDS011;38634;52.138;9.912;2023-03-05T16:26:55;12.13;;;4.32;;
52740;SDS011;38634;52.138;9.912;2023-03-05T16:29:40;14.25;;;4.75;;
52740;SDS011;38634;52.138;9.912;2023-03-05T16:32:25;22.77;;;5.97;;
52740;SDS011;38634;52.138;9.912;2023-03-05T16:35:10;16.63;;;5.68;;
52740;SDS011;38634;52.138;9.912;2023-03-05T16:38:00;14.75;;;4.80;;
52740;SDS011;38634;52.138;9.912;2023-03-05T16:40:45;13.77;;;4.82;;
52740;SDS011;38634;52.138;9.912;2023-03-05T16:43:30;15.05;;;5.63;;
52740;SDS011;38634;52.138;9.912;2023-03-05T16:46:14;23.20;;;8.13;;
52740;SDS011;38634;52.138;9.912;2023-03-05T16:48:59;33.17;;;8.52;;
52740;SDS011;38634;52.138;9.912;2023-03-05T16:51:44;15.10;;;5.13;;
52740;SDS011;38634;52.138;9.912;2023-03-05T16:54:28;10.88;;;4.53;;
52740;SDS011;38634;52.138;9.912;2023-03-05T16:57:14;17.33;;;6.47;;
52740;SDS011;38634;52.138;9.912;2023-03-05T16:59:59;30.60;;;8.30;;
52740;SDS011;38634;52.138;9.912;2023-03-05T17:02:46;22.08;;;6.72;;
52740;SDS011;38634;52.138;9.912;2023-03-05T17:05:33;15.20;;;4.63;;
52740;SDS011;38634;52.138;9.912;2023-03-05T17:08:20;24.90;;;7.22;;
52740;SDS011;38634;52.138;9.912;2023-03-05T17:11:07;28.17;;;7.65;;
52740;SDS011;38634;52.138;9.912;2023-03-05T17:13:52;26.45;;;8.13;;
52740;SDS011;38634;52.138;9.912;2023-03-05T17:16:36;9.60;;;4.53;;
52740;SDS011;38634;52.138;9.912;2023-03-05T17:19:21;17.92;;;5.03;;
52740;SDS011;38634;52.138;9.912;2023-03-05T17:22:06;27.08;;;7.68;;
52740;SDS011;38634;52.138;9.912;2023-03-05T17:24:50;37.80;;;9.02;;
52740;SDS011;38634;52.138;9.912;2023-03-05T17:27:36;30.83;;;7.93;;
52740;SDS011;38634;52.138;9.912;2023-03-05T17:30:20;17.15;;;5.05;;
52740;SDS011;38634;52.138;9.912;2023-03-05T17:33:05;18.25;;;5.55;;
52740;SDS011;38634;52.138;9.912;2023-03-05T17:35:50;29.65;;;7.28;;
52740;SDS011;38634;52.138;9.912;2023-03-05T17:38:34;37.20;;;9.18;;
52740;SDS011;38634;52.138;9.912;2023-03-05T17:41:19;32.70;;;8.45;;
52740;SDS011;38634;52.138;9.912;2023-03-05T17:44:04;17.98;;;6.72;;
52740;SDS011;38634;52.138;9.912;2023-03-05T17:46:49;18.63;;;5.40;;
52740;SDS011;38634;52.138;9.912;2023-03-05T17:49:34;20.30;;;5.95;;
52740;SDS011;38634;52.138;9.912;2023-03-05T17:52:18;37.42;;;9.57;;
52740;SDS011;38634;52.138;9.912;2023-03-05T17:55:04;35.05;;;8.90;;
52740;SDS011;38634;52.138;9.912;2023-03-05T17:57:53;17.95;;;5.28;;
52740;SDS011;38634;52.138;9.912;2023-03-05T18:00:38;20.48;;;5.95;;
52740;SDS011;38634;52.138;9.912;2023-03-05T18:03:22;28.27;;;8.32;;
52740;SDS011;38634;52.138;9.912;2023-03-05T18:06:07;29.10;;;8.32;;
52740;SDS011;38634;52.138;9.912;2023-03-05T18:08:52;16.88;;;5.85;;
52740;SDS011;38634;52.138;9.912;2023-03-05T18:11:36;17.38;;;5.32;;
52740;SDS011;38634;52.138;9.912;2023-03-05T18:14:21;21.02;;;6.53;;
52740;SDS011;38634;52.138;9.912;2023-03-05T18:17:05;14.63;;;5.93;;
52740;SDS011;38634;52.138;9.912;2023-03-05T18:19:51;7.35;;;3.72;;
52740;SDS011;38634;52.138;9.912;2023-03-05T18:22:36;15.65;;;3.88;;
52740;SDS011;38634;52.138;9.912;2023-03-05T18:25:20;11.75;;;3.33;;
52740;SDS011;38634;52.138;9.912;2023-03-05T18:28:11;7.13;;;2.55;;
52740;SDS011;38634;52.138;9.912;2023-03-05T18:30:57;9.55;;;3.08;;
52740;SDS011;38634;52.138;9.912;2023-03-05T18:33:42;10.05;;;3.10;;
52740;SDS011;38634;52.138;9.912;2023-03-05T18:36:27;8.43;;;2.88;;
52740;SDS011;38634;52.138;9.912;2023-03-05T18:39:12;9.70;;;3.10;;
52740;SDS011;38634;52.138;9.912;2023-03-05T18:41:58;9.55;;;3.25;;
52740;SDS011;38634;52.138;9.912;2023-03-05T18:44:43;8.45;;;3.08;;
52740;SDS011;38634;52.138;9.912;2023-03-05T18:47:28;7.13;;;2.80;;
52740;SDS011;38634;52.138;9.912;2023-03-05T18:50:13;6.22;;;2.92;;
52740;SDS011;38634;52.138;9.912;2023-03-05T18:53:01;6.70;;;3.28;;
52740;SDS011;38634;52.138;9.912;2023-03-05T18:55:45;9.95;;;2.97;;
52740;SDS011;38634;52.138;9.912;2023-03-05T18:58:30;10.70;;;4.45;;
52740;SDS011;38634;52.138;9.912;2023-03-05T19:01:15;10.25;;;3.20;;
52740;SDS011;38634;52.138;9.912;2023-03-05T19:04:00;6.93;;;3.20;;
52740;SDS011;38634;52.138;9.912;2023-03-05T19:06:45;6.95;;;3.33;;
52740;SDS011;38634;52.138;9.912;2023-03-05T19:09:30;4.53;;;2.83;;
52740;SDS011;38634;52.138;9.912;2023-03-05T19:12:37;6.85;;;3.10;;
52740;SDS011;38634;52.138;9.912;2023-03-05T19:15:38;8.60;;;2.95;;
52740;SDS011;38634;52.138;9.912;2023-03-05T19:18:23;8.10;;;3.60;;
52740;SDS011;38634;52.138;9.912;2023-03-05T19:21:10;7.68;;;3.28;;
52740;SDS011;38634;52.138;9.912;2023-03-05T19:23:55;6.75;;;3.15;;
52740;SDS011;38634;52.138;9.912;2023-03-05T19:26:39;7.82;;;3.15;;
52740;SDS011;38634;52.138;9.912;2023-03-05T19:29:25;7.68;;;2.63;;
52740;SDS011;38634;52.138;9.912;2023-03-05T19:32:16;6.00;;;2.92;;
52740;SDS011;38634;52.138;9.912;2023-03-05T19:35:01;6.03;;;3.33;;
52740;SDS011;38634;52.138;9.912;2023-03-05T19:37:45;7.03;;;3.38;;
52740;SDS011;38634;52.138;9.912;2023-03-05T19:40:30;6.15;;;3.20;;
52740;SDS011;38634;52.138;9.912;2023-03-05T19:43:14;7.78;;;3.38;;
52740;SDS011;38634;52.138;9.912;2023-03-05T19:46:01;8.02;;;3.15;;
52740;SDS011;38634;52.138;9.912;2023-03-05T19:48:47;9.70;;;3.60;;
52740;SDS011;38634;52.138;9.912;2023-03-05T19:51:32;7.93;;;3.13;;
52740;SDS011;38634;52.138;9.912;2023-03-05T19:54:17;8.93;;;3.05;;
52740;SDS011;38634;52.138;9.912;2023-03-05T19:57:04;8.10;;;2.97;;
52740;SDS011;38634;52.138;9.912;2023-03-05T19:59:50;8.20;;;3.30;;
52740;SDS011;38634;52.138;9.912;2023-03-05T20:02:36;7.32;;;2.90;;
52740;SDS011;38634;52.138;9.912;2023-03-05T20:05:20;7.18;;;2.88;;
52740;SDS011;38634;52.138;9.912;2023-03-05T20:08:08;5.63;;;2.97;;
52740;SDS011;38634;52.138;9.912;2023-03-05T20:10:52;4.65;;;2.90;;
52740;SDS011;38634;52.138;9.912;2023-03-05T20:13:37;6.63;;;2.95;;
52740;SDS011;38634;52.138;9.912;2023-03-05T20:16:26;5.28;;;2.65;;
52740;SDS011;38634;52.138;9.912;2023-03-05T20:19:14;6.50;;;2.90;;
52740;SDS011;38634;52.138;9.912;2023-03-05T20:22:00;4.90;;;3.13;;
52740;SDS011;38634;52.138;9.912;2023-03-05T20:24:45;3.67;;;2.50;;
52740;SDS011;38634;52.138;9.912;2023-03-05T20:27:29;5.43;;;3.08;;
52740;SDS011;38634;52.138;9.912;2023-03-05T20:30:14;5.10;;;2.97;;
52740;SDS011;38634;52.138;9.912;2023-03-05T20:33:00;8.38;;;3.28;;
52740;SDS011;38634;52.138;9.912;2023-03-05T20:35:45;8.48;;;2.88;;
52740;SDS011;38634;52.138;9.912;2023-03-05T20:38:30;12.75;;;4.13;;
52740;SDS011;38634;52.138;9.912;2023-03-05T20:41:16;9.05;;;2.88;;
52740;SDS011;38634;52.138;9.912;2023-03-05T20:44:03;9.30;;;4.15;;
52740;SDS011;38634;52.138;9.912;2023-03-05T20:46:49;7.35;;;3.10;;
52740;SDS011;38634;52.138;9.912;2023-03-05T20:49:45;5.25;;;2.70;;
52740;SDS011;38634;52.138;9.912;2023-03-05T20:52:30;12.23;;;6.30;;
52740;SDS011;38634;52.138;9.912;2023-03-05T20:55:14;14.45;;;8.43;;
52740;SDS011;38634;52.138;9.912;2023-03-05T20:57:59;9.13;;;5.32;;
52740;SDS011;38634;52.138;9.912;2023-03-05T21:00:43;13.13;;;5.95;;
52740;SDS011;38634;52.138;9.912;2023-03-05T21:03:28;13.10;;;5.75;;
52740;SDS011;38634;52.138;9.912;2023-03-05T21:06:13;6.78;;;3.35;;
52740;SDS011;38634;52.138;9.912;2023-03-05T21:08:58;8.23;;;2.80;;
52740;SDS011;38634;52.138;9.912;2023-03-05T21:11:42;10.98;;;3.22;;
52740;SDS011;38634;52.138;9.912;2023-03-05T21:14:27;11.55;;;3.33;;
52740;SDS011;38634;52.138;9.912;2023-03-05T21:17:12;9.88;;;3.08;;
52740;SDS011;38634;52.138;9.912;2023-03-05T21:19:56;11.48;;;3.95;;
52740;SDS011;38634;52.138;9.912;2023-03-05T21:22:41;6.50;;;3.00;;
52740;SDS011;38634;52.138;9.912;2023-03-05T21:25:27;8.93;;;3.47;;
52740;SDS011;38634;52.138;9.912;2023-03-05T21:28:13;5.88;;;3.10;;
52740;SDS011;38634;52.138;9.912;2023-03-05T21:31:04;8.30;;;3.38;;
52740;SDS011;38634;52.138;9.912;2023-03-05T21:33:51;11.88;;;4.85;;
52740;SDS011;38634;52.138;9.912;2023-03-05T21:36:36;9.43;;;3.30;;
52740;SDS011;38634;52.138;9.912;2023-03-05T21:39:20;10.38;;;3.30;;
52740;SDS011;38634;52.138;9.912;2023-03-05T21:42:05;9.80;;;3.63;;
52740;SDS011;38634;52.138;9.912;2023-03-05T21:44:50;11.00;;;3.17;;
52740;SDS011;38634;52.138;9.912;2023-03-05T21:47:34;13.88;;;3.47;;
52740;SDS011;38634;52.138;9.912;2023-03-05T21:50:19;14.15;;;3.47;;
52740;SDS011;38634;52.138;9.912;2023-03-05T21:53:05;7.93;;;3.30;;
52740;SDS011;38634;52.138;9.912;2023-03-05T21:55:51;10.80;;;3.85;;
52740;SDS011;38634;52.138;9.912;2023-03-05T21:59:04;11.85;;;5.88;;
52740;SDS011;38634;52.138;9.912;2023-03-05T22:01:49;13.13;;;8.88;;
52740;SDS011;38634;52.138;9.912;2023-03-05T22:04:33;13.32;;;10.15;;
52740;SDS011;38634;52.138;9.912;2023-03-05T22:07:18;7.55;;;4.53;;
52740;SDS011;38634;52.138;9.912;2023-03-05T22:10:03;6.75;;;3.15;;
52740;SDS011;38634;52.138;9.912;2023-03-05T22:13:18;7.90;;;4.95;;
52740;SDS011;38634;52.138;9.912;2023-03-05T22:15:56;8.43;;;3.45;;
52740;SDS011;38634;52.138;9.912;2023-03-05T22:18:42;13.40;;;4.43;;
52740;SDS011;38634;52.138;9.912;2023-03-05T22:21:26;18.13;;;5.30;;
52740;SDS011;38634;52.138;9.912;2023-03-05T22:24:11;14.43;;;4.03;;
52740;SDS011;38634;52.138;9.912;2023-03-05T22:26:56;14.20;;;4.35;;
52740;SDS011;38634;52.138;9.912;2023-03-05T22:29:41;12.63;;;3.80;;
52740;SDS011;38634;52.138;9.912;2023-03-05T22:32:25;11.13;;;3.17;;
52740;SDS011;38634;52.138;9.912;2023-03-05T22:35:11;10.77;;;3.33;;
52740;SDS011;38634;52.138;9.912;2023-03-05T22:37:57;7.82;;;3.35;;
52740;SDS011;38634;52.138;9.912;2023-03-05T22:40:43;11.82;;;3.38;;
52740;SDS011;38634;52.138;9.912;2023-03-05T22:43:29;7.80;;;3.45;;
52740;SDS011;38634;52.138;9.912;2023-03-05T22:48:59;6.43;;;2.90;;
52740;SDS011;38634;52.138;9.912;2023-03-05T22:51:44;10.07;;;3.50;;
52740;SDS011;38634;52.138;9.912;2023-03-05T22:54:29;9.05;;;3.08;;
52740;SDS011;38634;52.138;9.912;2023-03-05T22:57:13;7.25;;;3.28;;
52740;SDS011;38634;52.138;9.912;2023-03-05T22:59:58;9.35;;;3.05;;
52740;SDS011;38634;52.138;9.912;2023-03-05T23:02:43;11.35;;;3.53;;
52740;SDS011;38634;52.138;9.912;2023-03-05T23:05:30;9.45;;;3.38;;
52740;SDS011;38634;52.138;9.912;2023-03-05T23:08:16;6.35;;;3.40;;
52740;SDS011;38634;52.138;9.912;2023-03-05T23:11:05;4.55;;;2.88;;
52740;SDS011;38634;52.138;9.912;2023-03-05T23:13:53;8.88;;;4.28;;
52740;SDS011;38634;52.138;9.912;2023-03-05T23:16:37;8.32;;;4.50;;
52740;SDS011;38634;52.138;9.912;2023-03-05T23:19:23;4.75;;;2.60;;
52740;SDS011;38634;52.138;9.912;2023-03-05T23:22:09;13.43;;;3.58;;
52740;SDS011;38634;52.138;9.912;2023-03-05T23:24:55;10.88;;;3.08;;
52740;SDS011;38634;52.138;9.912;2023-03-05T23:27:39;11.73;;;3.30;;
52740;SDS011;38634;52.138;9.912;2023-03-05T23:30:25;11.70;;;3.42;;
52740;SDS011;38634;52.138;9.912;2023-03-05T23:33:21;11.32;;;3.17;;
52740;SDS011;38634;52.138;9.912;2023-03-05T23:36:06;11.38;;;3.17;;
52740;SDS011;38634;52.138;9.912;2023-03-05T23:38:52;12.57;;;3.45;;
52740;SDS011;38634;52.138;9.912;2023-03-05T23:41:40;13.02;;;3.72;;
52740;SDS011;38634;52.138;9.912;2023-03-05T23:44:24;11.85;;;3.50;;
52740;SDS011;38634;52.138;9.912;2023-03-05T23:47:09;13.07;;;3.58;;
52740;SDS011;38634;52.138;9.912;2023-03-05T23:49:53;12.55;;;3.75;;
52740;SDS011;38634;52.138;9.912;2023-03-05T23:52:38;12.68;;;3.30;;
